Holman Station, Alabama
Current Conditions -  °F | °C
As of 7:56 PM on Saturday 25 Oct 2014 (Local Time) from KNSE Reporting Station
Clear Clear  
Wind Chill: 58°   Ceiling: Unl
Heat Index: 58°   Visibility: 10mi
Dew Point: 52°   Wind: 5mph
Humidity: 81%   Direction: 330°NNW
Pressure: 30.06"   Gusts: NA
Location:  31.0216°N, 87.4954°W
Report Text: KNSE 260056Z AUTO 33004KT 10SM CLR 14/11 A3006 RMK AO2 SLP166 T01440111 $
Loading
Personal Weather Stations






























Interactive Weather Map
Tropical Storm Tracking
New forecast layout! Learn more

10-Day Weather Forecast

Advertisements
Track Severe Weather on mobile